Collinston, Louisiana
Current Conditions -  °F | °C
As of 8:55 PM on Friday 19 Dec 2014 (Local Time) from KBQP Reporting Station
Overcast Overcast  
Wind Chill: 43°   Ceiling: 700
Heat Index: 45°   Visibility: 7mi
Dew Point: 44°   Wind: 5mph
Humidity: 94%   Direction: 40°NE
Pressure: 30.2"   Gusts: NA
Location:  32.69°N, 91.87°W
Report Text: KBQP 200255Z AUTO 04004KT 7SM OVC007 07/07 A3020 RMK AO2 T00740065
Loading
Personal Weather Stations






























Interactive Weather Map New forecast layout! Learn more

10-Day Weather Forecast

Advertisements
Track Severe Weather on mobile